Olongapo, Philippines
Current Conditions -  °F | °C
As of 4:00 PM on Thursday 23 Oct 2014 (Local Time) from RPLB Reporting Station
Scattered Clouds Scattered Clouds  
Wind Chill: 88°   Ceiling: Unl
Heat Index: 94°   Visibility: 6mi
Dew Point: 72°   Wind: 10mph
Humidity: 58%   Direction: 80°E
Pressure: 29.77"   Gusts: NA
Location:  14.82°N, 120.28°E
Report Text: RPLB 230800Z 08009KT 9999 FEW020 SCT080 31/22 Q1008 NOSIG RMK A2977
Loading
Personal Weather Stations






























Interactive Weather Map
Tropical Storm Tracking
New forecast layout! Learn more

10-Day Weather Forecast

Advertisements
Track Severe Weather on mobile